Time;durP1;ratioP1;P1;durP2;ratioP2;P2;SDS_P1;SDS_P2;PMS_P1;PMS_P2;Temp;Humidity;BMP_temperature;BMP_pressure;BME280_temperature;BME280_humidity;BME280_pressure;Samples;Min_cycle;Max_cycle;Signal;HPM_P1;HPM_P2
2022/02/25 00:03:01;;;;;;;;;5.40;5.00;;;;;12.97;27.13;98420.22;6238677;28;97115;-72
2022/02/25 00:06:04;;;;;;;;;5.80;5.00;;;;;13.00;27.08;98427.00;6225307;28;97030;-73
2022/02/25 00:09:07;;;;;;;;;5.40;5.00;;;;;13.12;26.98;98422.34;6253882;27;100110;-73
2022/02/25 00:12:11;;;;;;;;;5.00;5.00;;;;;13.15;26.90;98416.44;6238492;28;97525;-72
2022/02/25 00:15:16;;;;;;;;;5.00;5.00;;;;;13.30;26.84;98405.00;6236005;27;98763;-72
2022/02/25 00:18:20;;;;;;;;;5.00;5.00;;;;;13.29;26.90;98401.47;6238939;28;96652;-72
2022/02/25 00:21:23;;;;;;;;;6.20;5.00;;;;;13.37;26.69;98389.38;6238351;27;96672;-71
2022/02/25 00:24:27;;;;;;;;;6.00;5.00;;;;;13.44;26.84;98392.72;6242131;27;97432;-71
2022/02/25 00:27:30;;;;;;;;;5.00;5.00;;;;;13.36;26.90;98380.44;6264464;27;97535;-71
2022/02/25 00:30:35;;;;;;;;;6.00;5.00;;;;;13.25;27.16;98389.50;6244853;27;96631;-72
2022/02/25 00:33:38;;;;;;;;;6.60;5.00;;;;;13.28;26.93;98385.50;6226610;27;97410;-71
2022/02/25 00:36:41;;;;;;;;;6.00;5.00;;;;;13.30;27.05;98386.03;6261485;27;97526;-72
2022/02/25 00:39:44;;;;;;;;;5.00;5.00;;;;;13.35;26.93;98377.97;6262606;27;97562;-72
2022/02/25 00:42:48;;;;;;;;;5.00;4.20;;;;;13.42;27.00;98386.75;6256524;27;97662;-72
2022/02/25 00:45:53;;;;;;;;;5.00;5.00;;;;;13.43;26.94;98385.69;6255586;27;96436;-72
2022/02/25 00:48:56;;;;;;;;;5.00;5.00;;;;;13.42;26.89;98384.03;6264158;27;97526;-71
2022/02/25 00:51:59;;;;;;;;;6.00;5.60;;;;;13.42;27.02;98370.50;6263781;27;97506;-71
2022/02/25 00:55:04;;;;;;;;;4.00;4.00;;;;;13.43;26.79;98372.97;6245222;27;97087;-71
2022/02/25 00:58:07;;;;;;;;;4.00;4.00;;;;;13.39;26.93;98365.56;6245751;27;97845;-72
2022/02/25 01:01:12;;;;;;;;;6.00;5.00;;;;;13.32;27.13;98365.78;6244901;27;98658;-72
2022/02/25 01:04:16;;;;;;;;;6.00;5.00;;;;;13.25;27.23;98350.78;6244340;27;97802;-71
2022/02/25 01:07:19;;;;;;;;;6.40;5.40;;;;;13.12;27.59;98352.00;6263669;27;96401;-71
2022/02/25 01:10:22;;;;;;;;;5.00;5.00;;;;;13.18;27.51;98355.56;6264371;27;96917;-72
2022/02/25 01:13:26;;;;;;;;;6.00;5.50;;;;;13.18;27.56;98350.16;6263734;27;96574;-72
2022/02/25 01:16:31;;;;;;;;;4.00;4.00;;;;;13.25;27.26;98346.19;6245245;27;97032;-72
2022/02/25 01:19:34;;;;;;;;;5.60;5.00;;;;;13.20;27.59;98340.72;6263746;27;97589;-72
2022/02/25 01:22:38;;;;;;;;;5.00;5.00;;;;;13.22;27.23;98354.81;6245343;27;98588;-72
2022/02/25 01:25:41;;;;;;;;;6.40;5.00;;;;;13.22;27.54;98345.88;6262195;27;96305;-72
2022/02/25 01:28:46;;;;;;;;;5.00;5.00;;;;;13.26;27.43;98339.72;6263508;27;97553;-71
2022/02/25 01:31:51;;;;;;;;;5.40;5.00;;;;;13.33;27.32;98348.47;6262732;27;96670;-72
2022/02/25 01:34:54;;;;;;;;;7.00;6.00;;;;;13.32;27.55;98330.59;6263109;27;97463;-72
2022/02/25 01:37:57;;;;;;;;;6.00;5.00;;;;;13.43;27.54;98335.06;6244792;27;97112;-72
2022/02/25 01:41:00;;;;;;;;;5.00;4.80;;;;;13.45;27.50;98332.06;6234611;27;96511;-73
2022/02/25 01:44:18;;;;;;;;;5.00;5.00;;;;;13.48;27.34;98337.00;6258664;27;97577;-71
2022/02/25 01:47:23;;;;;;;;;6.00;4.00;;;;;13.40;27.62;98330.13;6227229;27;97742;-71
2022/02/25 01:50:28;;;;;;;;;4.60;4.60;;;;;13.37;27.95;98319.00;6263341;27;96914;-72
2022/02/25 01:53:32;;;;;;;;;4.00;4.00;;;;;13.29;28.21;98324.88;6262811;27;97482;-71
2022/02/25 01:56:36;;;;;;;;;5.00;5.00;;;;;13.20;28.39;98319.06;6251343;27;97724;-72
2022/02/25 01:59:41;;;;;;;;;6.00;5.00;;;;;13.18;28.26;98318.50;6239972;27;96474;-72
2022/02/25 02:02:45;;;;;;;;;6.67;5.00;;;;;13.15;28.37;98327.13;6261738;27;97562;-72
2022/02/25 02:05:49;;;;;;;;;5.40;5.40;;;;;13.16;28.32;98317.94;6227282;27;98598;-72
2022/02/25 02:08:52;;;;;;;;;5.67;5.67;;;;;13.16;28.26;98317.09;6244661;27;96735;-72
2022/02/25 02:11:56;;;;;;;;;6.00;6.00;;;;;13.23;28.33;98323.16;6244122;27;96744;-72
2022/02/25 02:14:59;;;;;;;;;8.50;7.00;;;;;13.24;28.29;98328.31;6243939;27;96687;-72
2022/02/25 02:18:04;;;;;;;;;6.00;5.00;;;;;13.32;28.30;98327.88;6240639;27;96963;-72
2022/02/25 02:21:07;;;;;;;;;7.40;6.00;;;;;13.30;28.58;98324.59;6227320;27;98562;-73
2022/02/25 02:24:14;;;;;;;;;5.60;5.60;;;;;13.33;28.79;98324.09;6260693;27;97353;-72
2022/02/25 02:27:17;;;;;;;;;7.00;6.00;;;;;13.25;28.71;98304.75;6260836;27;96592;-73
2022/02/25 02:30:21;;;;;;;;;6.00;6.00;;;;;13.28;29.10;98312.41;6260645;27;97785;-73
2022/02/25 02:33:24;;;;;;;;;5.40;5.40;;;;;13.28;29.16;98315.94;6242561;27;97761;-73
2022/02/25 02:36:28;;;;;;;;;7.00;6.00;;;;;13.31;29.27;98317.28;6242752;27;97518;-73
2022/02/25 02:39:33;;;;;;;;;5.00;4.00;;;;;13.35;29.08;98313.81;6266569;27;97447;-71
2022/02/25 02:42:36;;;;;;;;;5.00;4.80;;;;;13.33;29.44;98302.44;6248334;27;98586;-72
2022/02/25 02:45:40;;;;;;;;;5.00;5.00;;;;;13.38;29.45;98304.41;6266855;27;97508;-73
2022/02/25 02:48:44;;;;;;;;;5.40;5.00;;;;;13.18;29.56;98287.91;6267009;27;96464;-72
2022/02/25 02:51:47;;;;;;;;;4.00;4.00;;;;;13.22;29.72;98291.75;6266099;27;96662;-72
2022/02/25 02:54:52;;;;;;;;;5.00;4.00;;;;;13.21;29.56;98304.47;6265909;27;97496;-72
2022/02/25 02:57:55;;;;;;;;;4.00;4.00;;;;;13.11;29.85;98287.25;6246383;27;99652;-73
2022/02/25 03:00:59;;;;;;;;;5.75;5.00;;;;;13.18;29.92;98313.09;6265234;27;96839;-73
2022/02/25 03:04:03;;;;;;;;;5.00;5.00;;;;;13.22;29.92;98321.53;6266130;27;97055;-73
2022/02/25 03:07:07;;;;;;;;;5.40;4.00;;;;;13.28;29.86;98318.63;6266184;27;97556;-72
2022/02/25 03:10:12;;;;;;;;;5.00;5.00;;;;;13.41;29.49;98320.13;6266104;27;97509;-72
2022/02/25 03:13:16;;;;;;;;;5.00;5.00;;;;;13.45;29.61;98330.19;6265211;27;96938;-72
2022/02/25 03:16:20;;;;;;;;;5.00;5.00;;;;;13.54;29.52;98330.56;6266124;27;97135;-73
2022/02/25 03:19:24;;;;;;;;;5.00;4.00;;;;;13.59;29.39;98330.59;6265881;27;97305;-73
2022/02/25 03:22:27;;;;;;;;;4.50;4.00;;;;;13.63;29.12;98329.06;6248047;27;97059;-73
2022/02/25 03:25:32;;;;;;;;;6.00;5.00;;;;;13.55;29.53;98339.50;6265180;27;97313;-72
2022/02/25 03:28:35;;;;;;;;;5.00;5.00;;;;;13.60;29.35;98337.66;6265360;27;96587;-72
2022/02/25 03:31:39;;;;;;;;;5.00;5.00;;;;;13.62;29.56;98340.13;6264224;27;98186;-72
2022/02/25 03:34:43;;;;;;;;;5.00;5.00;;;;;13.59;29.69;98335.19;6222916;28;96768;-72
2022/02/25 03:37:47;;;;;;;;;5.00;5.00;;;;;13.54;29.50;98338.69;6239590;27;96409;-75
2022/02/25 03:40:54;;;;;;;;;5.00;4.20;;;;;13.43;29.79;98328.81;6246980;27;98613;-72
2022/02/25 03:43:58;;;;;;;;;5.00;4.00;;;;;13.50;29.80;98332.13;6247574;27;97587;-72
2022/02/25 03:47:01;;;;;;;;;5.20;5.00;;;;;13.52;29.85;98337.31;6266073;27;96531;-72
2022/02/25 03:50:06;;;;;;;;;6.00;5.00;;;;;13.50;29.97;98337.56;6264913;27;96617;-72
2022/02/25 03:53:10;;;;;;;;;4.00;4.00;;;;;13.55;29.93;98334.91;6265860;27;96566;-72
2022/02/25 03:56:15;;;;;;;;;4.50;4.00;;;;;13.54;29.87;98333.25;6264448;27;96560;-72
2022/02/25 03:59:18;;;;;;;;;6.00;5.50;;;;;13.50;30.04;98336.72;6265391;27;97666;-72
2022/02/25 04:02:21;;;;;;;;;5.00;5.00;;;;;13.47;30.22;98339.97;6227264;27;96912;-72
2022/02/25 04:05:25;;;;;;;;;4.00;4.00;;;;;13.53;30.06;98355.19;6265029;27;96931;-73
2022/02/25 04:08:28;;;;;;;;;5.00;5.00;;;;;13.55;30.21;98343.03;6246959;27;96641;-72
2022/02/25 04:11:33;;;;;;;;;5.00;5.00;;;;;13.50;30.38;98355.69;6263656;27;97540;-72
2022/02/25 04:14:36;;;;;;;;;6.00;5.00;;;;;13.50;30.17;98359.22;6243642;27;99438;-72
2022/02/25 04:17:40;;;;;;;;;5.00;5.00;;;;;13.49;30.23;98363.00;6262517;27;96860;-72
2022/02/25 04:20:43;;;;;;;;;5.00;4.00;;;;;13.46;30.42;98366.22;6244425;27;96643;-72
2022/02/25 04:23:47;;;;;;;;;5.00;4.00;;;;;13.45;30.48;98367.28;6226942;27;99592;-73
2022/02/25 04:26:53;;;;;;;;;4.00;4.00;;;;;13.37;30.62;98370.44;6246692;27;97600;-73
2022/02/25 04:29:57;;;;;;;;;4.00;4.00;;;;;13.35;30.56;98372.56;6246036;27;96797;-71
2022/02/25 04:33:01;;;;;;;;;6.40;5.40;;;;;13.38;30.44;98381.03;6259619;27;96629;-71
2022/02/25 04:36:06;;;;;;;;;5.60;5.00;;;;;13.41;30.32;98383.22;6264433;27;97404;-72
2022/02/25 04:39:09;;;;;;;;;5.50;5.00;;;;;13.37;30.53;98379.38;6246114;27;100596;-71
2022/02/25 04:42:14;;;;;;;;;5.00;4.00;;;;;13.47;30.18;98386.00;6263896;27;96481;-72
2022/02/25 04:45:18;;;;;;;;;6.00;4.60;;;;;13.26;30.86;98388.44;6263723;27;97481;-72
2022/02/25 04:48:21;;;;;;;;;6.00;5.00;;;;;13.30;30.69;98386.03;6262191;27;97464;-72
2022/02/25 04:51:24;;;;;;;;;4.80;4.80;;;;;13.18;30.90;98394.28;6270072;27;97707;-71
2022/02/25 04:54:29;;;;;;;;;5.60;4.60;;;;;13.16;30.85;98396.41;6219743;27;98446;-72
2022/02/25 04:57:33;;;;;;;;;5.00;4.80;;;;;12.98;30.91;98377.75;6244474;27;97171;-71
2022/02/25 05:00:36;;;;;;;;;4.60;4.00;;;;;13.16;30.90;98403.72;6246026;27;97575;-72
2022/02/25 05:03:40;;;;;;;;;5.00;5.00;;;;;13.19;30.91;98406.78;6261037;27;96675;-72
2022/02/25 05:06:45;;;;;;;;;6.40;6.00;;;;;13.16;31.03;98409.94;6239840;27;99079;-72
2022/02/25 05:09:48;;;;;;;;;4.00;4.00;;;;;13.12;31.05;98418.81;6254384;27;98412;-72
2022/02/25 05:12:54;;;;;;;;;5.00;5.00;;;;;13.07;31.30;98421.44;6263799;27;97378;-73
2022/02/25 05:22:41;;;;;;;;;6.40;5.00;;;;;13.11;31.32;98433.38;6264553;27;97365;-72
2022/02/25 05:25:44;;;;;;;;;4.20;4.00;;;;;13.18;31.46;98432.19;6261063;27;97755;-72
2022/02/25 05:28:49;;;;;;;;;4.80;4.00;;;;;12.98;31.22;98402.91;6253685;27;98074;-72
2022/02/25 05:31:52;;;;;;;;;5.00;5.00;;;;;13.27;31.42;98448.81;6262743;27;96519;-72
2022/02/25 05:34:56;;;;;;;;;7.00;6.00;;;;;13.18;31.51;98459.25;6243395;27;97759;-72
2022/02/25 05:38:00;;;;;;;;;6.67;6.00;;;;;13.29;31.39;98462.94;6246013;27;97064;-72
2022/02/25 05:41:04;;;;;;;;;7.75;6.75;;;;;13.22;31.64;98467.69;6243996;27;96713;-72
2022/02/25 05:44:08;;;;;;;;;6.00;5.00;;;;;13.32;31.43;98459.72;6253481;27;96934;-72
2022/02/25 05:47:17;;;;;;;;;10.00;7.25;;;;;13.46;31.21;98482.66;6249990;27;99635;-72
2022/02/25 05:50:22;;;;;;;;;6.50;5.00;;;;;13.57;31.02;98492.56;6261068;27;97552;-73
2022/02/25 05:53:25;;;;;;;;;6.60;6.00;;;;;13.64;31.01;98508.63;6261060;27;96552;-72
2022/02/25 05:56:29;;;;;;;;;6.00;5.40;;;;;13.78;31.01;98526.16;6248534;27;98517;-73
2022/02/25 05:59:34;;;;;;;;;5.80;5.00;;;;;13.90;30.78;98526.84;6243290;27;99585;-73
2022/02/25 06:02:37;;;;;;;;;6.00;5.00;;;;;13.93;30.75;98541.81;6259659;27;97024;-72
2022/02/25 06:05:40;;;;;;;;;8.00;7.40;;;;;13.98;30.75;98544.56;6250430;27;98493;-70
2022/02/25 06:08:44;;;;;;;;;7.00;6.00;;;;;13.98;30.89;98528.28;6265179;27;96711;-70
2022/02/25 06:11:47;;;;;;;;;5.00;5.00;;;;;13.96;31.00;98531.28;6257713;27;97446;-72
2022/02/25 06:14:52;;;;;;;;;7.60;6.80;;;;;14.01;31.17;98542.19;6240929;27;97088;-70
2022/02/25 06:17:55;;;;;;;;;8.40;8.00;;;;;13.97;31.41;98545.66;6243297;27;97828;-69
2022/02/25 06:20:58;;;;;;;;;7.25;7.25;;;;;14.02;31.61;98537.56;6259963;27;96833;-70
2022/02/25 06:24:02;;;;;;;;;10.00;8.60;;;;;14.11;31.55;98533.34;6261047;27;96913;-70
2022/02/25 06:27:06;;;;;;;;;7.00;7.00;;;;;13.96;31.48;98530.44;6262234;27;97501;-70
2022/02/25 06:30:14;;;;;;;;;9.00;7.00;;;;;14.08;32.26;98563.66;6261005;27;97664;-70
2022/02/25 06:33:17;;;;;;;;;11.00;9.60;;;;;14.11;32.14;98563.16;6225326;27;97955;-70
2022/02/25 06:36:20;;;;;;;;;9.80;8.80;;;;;14.13;32.12;98566.44;6241480;27;98507;-71
2022/02/25 06:39:23;;;;;;;;;10.00;9.00;;;;;14.12;32.68;98576.44;6260783;27;97437;-71
2022/02/25 06:42:27;;;;;;;;;9.40;8.00;;;;;14.05;32.71;98592.09;6261579;27;97491;-73
2022/02/25 06:45:31;;;;;;;;;8.00;8.00;;;;;13.87;33.33;98593.22;6262411;27;96673;-69
2022/02/25 06:48:35;;;;;;;;;9.60;9.00;;;;;13.84;33.60;98609.13;6244263;27;100007;-70
2022/02/25 06:51:38;;;;;;;;;8.40;8.00;;;;;13.70;34.41;98618.69;6262433;27;96490;-73
2022/02/25 06:54:42;;;;;;;;;9.20;8.00;;;;;13.71;34.43;98632.00;6242238;27;97141;-71
2022/02/25 06:57:46;;;;;;;;;7.50;7.50;;;;;13.54;35.06;98631.16;6247931;27;96411;-72
2022/02/25 07:00:51;;;;;;;;;8.00;7.20;;;;;13.57;35.21;98636.13;6241885;27;99014;-69
2022/02/25 07:03:55;;;;;;;;;10.80;9.20;;;;;13.39;36.18;98647.16;6259292;27;97461;-69
2022/02/25 07:06:58;;;;;;;;;8.60;7.00;;;;;13.43;35.62;98661.88;6261206;27;97406;-71
2022/02/25 07:10:03;;;;;;;;;9.00;8.00;;;;;13.37;36.16;98679.09;6244064;27;97153;-72
2022/02/25 07:13:08;;;;;;;;;10.00;9.00;;;;;13.26;36.53;98697.03;6242702;27;96636;-69
2022/02/25 07:16:13;;;;;;;;;8.00;7.40;;;;;13.30;36.64;98706.31;6241714;27;96815;-70
2022/02/25 07:19:17;;;;;;;;;7.00;7.00;;;;;13.16;38.09;98726.63;6249134;27;98266;-71
2022/02/25 07:22:20;;;;;;;;;5.00;4.60;;;;;12.97;40.37;98749.50;6244227;27;98888;-70
2022/02/25 07:25:24;;;;;;;;;2.00;2.00;;;;;12.63;41.61;98766.66;6242454;27;96707;-70
2022/02/25 07:28:27;;;;;;;;;2.60;2.20;;;;;12.39;42.25;98788.31;6266161;27;96912;-69
2022/02/25 07:31:31;;;;;;;;;3.00;2.00;;;;;12.13;43.06;98822.00;6248074;27;98589;-70
2022/02/25 07:34:39;;;;;;;;;1.40;1.00;;;;;11.75;43.29;98821.59;6266343;27;96584;-66
2022/02/25 07:37:42;;;;;;;;;1.00;0.00;;;;;11.53;44.02;98828.53;6265324;27;96472;-69
2022/02/25 07:40:46;;;;;;;;;1.00;1.00;;;;;11.42;43.46;98834.72;6265477;27;97441;-65
2022/02/25 07:43:49;;;;;;;;;2.00;2.00;;;;;11.28;43.60;98837.59;6247833;27;99658;-64
2022/02/25 07:46:54;;;;;;;;;1.00;1.00;;;;;11.21;43.91;98836.84;6266215;27;97520;-65
2022/02/25 07:49:59;;;;;;;;;1.00;1.00;;;;;11.21;44.49;98841.41;6263776;27;97438;-66
2022/02/25 07:53:04;;;;;;;;;0.00;0.00;;;;;11.18;44.08;98842.69;6246738;27;97207;-62
2022/02/25 07:56:07;;;;;;;;;3.00;2.00;;;;;10.94;44.72;98832.00;6246865;27;97930;-61
2022/02/25 07:59:12;;;;;;;;;1.00;1.00;;;;;10.99;44.88;98849.16;6231476;27;99927;-62
2022/02/25 08:02:22;;;;;;;;;1.00;1.00;;;;;11.07;44.49;98853.41;6206166;27;97871;-61
2022/02/25 08:05:26;;;;;;;;;1.60;1.60;;;;;11.15;44.87;98859.31;6237978;27;96677;-61
2022/02/25 08:08:29;;;;;;;;;1.00;1.00;;;;;11.13;44.83;98874.94;6273327;27;96918;-61
2022/02/25 08:11:33;;;;;;;;;1.00;1.00;;;;;11.13;45.34;98877.63;6265117;27;97367;-61
2022/02/25 08:14:38;;;;;;;;;1.00;1.00;;;;;11.12;45.33;98884.06;6254467;27;97205;-61
2022/02/25 08:17:42;;;;;;;;;2.80;2.00;;;;;11.16;45.13;98887.97;6263792;27;97706;-62
2022/02/25 08:20:46;;;;;;;;;2.80;2.00;;;;;11.11;45.47;98895.06;6247287;27;96561;-63
2022/02/25 08:23:49;;;;;;;;;2.00;2.00;;;;;11.09;45.61;98905.28;6264060;27;97940;-62
2022/02/25 08:26:53;;;;;;;;;3.00;3.00;;;;;10.99;45.49;98894.19;6258290;27;97248;-63
2022/02/25 08:29:56;;;;;;;;;3.60;3.00;;;;;11.00;45.72;98901.22;6271809;27;97424;-63
2022/02/25 08:33:04;;;;;;;;;3.60;3.00;;;;;10.88;46.15;98895.75;6278891;27;97500;-64
2022/02/25 08:36:08;;;;;;;;;2.20;2.20;;;;;10.87;46.01;98902.19;6268274;27;97579;-62
2022/02/25 08:39:11;;;;;;;;;4.00;4.00;;;;;10.92;46.06;98907.75;6287754;27;97486;-65
2022/02/25 08:42:14;;;;;;;;;4.00;4.00;;;;;10.90;46.63;98907.13;6264699;27;97695;-62
2022/02/25 08:45:18;;;;;;;;;3.00;3.00;;;;;10.86;46.87;98909.44;6265004;27;96319;-62
2022/02/25 08:48:23;;;;;;;;;5.00;5.00;;;;;10.86;46.92;98914.03;6265973;27;96976;-64
2022/02/25 08:51:27;;;;;;;;;5.00;5.00;;;;;10.88;46.97;98920.03;6262371;27;97012;-66
2022/02/25 08:54:30;;;;;;;;;5.40;5.00;;;;;10.73;47.82;98911.47;6268859;27;96728;-63
2022/02/25 08:57:33;;;;;;;;;5.50;5.50;;;;;10.66;47.59;98921.47;6263971;27;97413;-63
2022/02/25 09:00:37;;;;;;;;;6.00;6.00;;;;;10.60;48.10;98916.97;6263021;27;97418;-63
2022/02/25 09:03:42;;;;;;;;;6.40;6.00;;;;;10.59;48.48;98929.63;6270914;27;96479;-63
2022/02/25 09:06:45;;;;;;;;;7.00;6.50;;;;;10.50;48.51;98927.44;6251467;27;96825;-61
2022/02/25 09:09:50;;;;;;;;;6.00;6.00;;;;;10.45;48.50;98936.19;6260410;27;96665;-64
2022/02/25 09:12:54;;;;;;;;;6.60;6.00;;;;;10.43;48.13;98943.66;6261972;27;99685;-62
2022/02/25 09:15:57;;;;;;;;;6.20;5.60;;;;;10.32;48.59;98953.25;6254115;27;97475;-64
2022/02/25 09:19:02;;;;;;;;;8.00;7.75;;;;;10.40;48.38;98957.56;6261962;27;97475;-64
2022/02/25 09:22:06;;;;;;;;;6.00;5.75;;;;;10.38;48.38;98955.09;6260131;27;96911;-63
2022/02/25 09:25:10;;;;;;;;;7.00;7.00;;;;;10.46;48.23;98959.38;6262462;27;97636;-62
2022/02/25 09:28:14;;;;;;;;;7.00;7.00;;;;;10.52;47.96;98971.16;6263127;27;96992;-63
2022/02/25 09:31:17;;;;;;;;;8.50;8.00;;;;;10.47;48.44;98976.38;6262486;27;96585;-63
2022/02/25 09:34:23;;;;;;;;;8.60;8.00;;;;;10.62;47.53;98975.00;6262056;27;96591;-62
2022/02/25 09:37:26;;;;;;;;;7.20;6.80;;;;;10.84;47.46;98973.59;6262492;27;97554;-62
2022/02/25 09:40:30;;;;;;;;;7.60;7.00;;;;;10.91;47.30;98973.50;6263394;27;97428;-62
2022/02/25 09:43:33;;;;;;;;;7.00;7.00;;;;;11.01;46.55;98981.94;6259668;27;99606;-63
2022/02/25 09:46:36;;;;;;;;;7.40;7.00;;;;;11.04;46.45;98991.47;6262723;27;97057;-64
2022/02/25 09:49:42;;;;;;;;;10.00;8.00;;;;;11.09;47.00;98988.94;6262848;27;97537;-63
2022/02/25 09:52:46;;;;;;;;;10.00;9.00;;;;;11.14;47.03;98983.69;6262631;27;96604;-62
2022/02/25 09:55:49;;;;;;;;;9.00;8.00;;;;;11.39;46.73;99002.50;6260840;27;97847;-61
2022/02/25 09:58:52;;;;;;;;;10.50;9.00;;;;;11.64;46.78;98990.59;6262822;27;96396;-62
2022/02/25 10:02:02;;;;;;;;;10.00;9.00;;;;;11.61;45.59;98979.44;6260965;27;97750;-60
2022/02/25 10:05:13;;;;;;;;;9.00;8.75;;;;;12.02;45.39;99003.06;6263255;27;96655;-62
2022/02/25 10:08:18;;;;;;;;;7.40;7.00;;;;;12.33;43.82;98985.75;6244836;27;97831;-62
2022/02/25 10:11:21;;;;;;;;;9.00;8.00;;;;;12.61;43.67;98985.94;6263380;27;96938;-63
2022/02/25 10:14:30;;;;;;;;;10.25;8.00;;;;;12.73;43.13;98985.97;6262667;27;97542;-62
2022/02/25 10:17:35;;;;;;;;;9.60;8.60;;;;;12.81;42.35;98993.75;6263051;27;97817;-61
2022/02/25 10:20:40;;;;;;;;;9.00;8.60;;;;;12.84;42.89;98993.28;6262840;27;97517;-63
2022/02/25 10:23:49;;;;;;;;;9.00;8.00;;;;;12.92;42.75;98995.63;6262206;27;97440;-62
2022/02/25 10:26:53;;;;;;;;;10.00;9.00;;;;;12.95;41.81;99001.41;6258836;27;96378;-63
2022/02/25 10:30:04;;;;;;;;;12.00;11.50;;;;;12.99;41.67;98994.50;6271513;27;96980;-61
2022/02/25 10:33:08;;;;;;;;;9.75;9.00;;;;;13.23;41.83;98994.50;6260265;27;97447;-63
2022/02/25 10:36:13;;;;;;;;;8.75;8.75;;;;;13.24;41.70;98991.56;6243470;27;98526;-63
2022/02/25 10:39:19;;;;;;;;;9.00;8.00;;;;;13.23;41.54;99000.75;6262169;27;96997;-63
2022/02/25 10:42:24;;;;;;;;;12.00;11.00;;;;;13.10;41.37;98998.22;6262179;27;96423;-62
2022/02/25 10:45:33;;;;;;;;;8.00;8.00;;;;;12.87;41.40;98963.06;6261987;27;96567;-63
2022/02/25 10:48:36;;;;;;;;;9.00;8.80;;;;;12.95;41.35;98997.91;6262304;27;97482;-63
2022/02/25 10:51:43;;;;;;;;;11.00;9.40;;;;;12.94;42.04;99004.38;6241826;27;98397;-63
2022/02/25 10:54:46;;;;;;;;;10.00;9.00;;;;;12.82;41.49;99008.91;6275520;27;97944;-63
2022/02/25 10:57:53;;;;;;;;;10.40;9.60;;;;;12.61;41.51;99013.00;6287495;27;96472;-64
2022/02/25 11:01:03;;;;;;;;;11.00;9.00;;;;;12.35;40.86;99019.63;6291603;27;96578;-62
2022/02/25 11:04:08;;;;;;;;;10.40;9.40;;;;;12.02;41.98;99011.16;6257110;27;97150;-63
2022/02/25 11:07:13;;;;;;;;;11.00;10.00;;;;;12.03;42.69;99027.13;6260067;27;96317;-64
2022/02/25 11:10:19;;;;;;;;;10.00;9.00;;;;;11.87;43.10;99016.97;6249184;27;96715;-60
2022/02/25 11:13:23;;;;;;;;;12.00;11.00;;;;;11.77;43.96;99023.94;6269583;27;97398;-60
2022/02/25 11:16:28;;;;;;;;;10.00;10.00;;;;;11.70;44.05;99019.41;6264472;27;96715;-61
2022/02/25 11:19:56;;;;;;;;;11.40;10.00;;;;;11.76;44.06;99025.00;6270582;27;97201;-62
2022/02/25 11:23:03;;;;;;;;;9.40;9.00;;;;;11.44;44.50;99019.69;6267240;27;97339;-61
2022/02/25 11:26:06;;;;;;;;;11.00;10.60;;;;;11.27;44.44;99019.47;6261327;27;96884;-62
2022/02/25 11:29:14;;;;;;;;;11.25;9.00;;;;;11.18;44.88;99022.66;6271541;27;97024;-63
2022/02/25 11:32:22;;;;;;;;;10.00;9.67;;;;;11.14;44.96;99021.47;6269840;27;97177;-62
2022/02/25 11:35:51;;;;;;;;;11.00;9.00;;;;;11.11;45.23;99019.19;6248963;27;96978;-63
2022/02/25 11:39:19;;;;;;;;;11.00;10.40;;;;;11.15;45.05;99010.44;6266006;27;96479;-63
2022/02/25 11:42:28;;;;;;;;;11.50;10.00;;;;;11.13;45.41;99009.03;6264779;27;97453;-62
2022/02/25 11:45:48;;;;;;;;;10.25;10.00;;;;;11.24;44.69;99009.09;6260195;27;99319;-61
2022/02/25 11:48:55;;;;;;;;;10.00;10.00;;;;;12.11;43.70;98994.41;6262777;27;96927;-61
2022/02/25 11:52:02;;;;;;;;;12.00;11.00;;;;;13.53;40.92;98988.97;6265077;27;97486;-62
2022/02/25 11:55:09;;;;;;;;;9.00;9.00;;;;;15.05;38.08;98989.94;6259470;27;97003;-62
2022/02/25 11:58:57;;;;;;;;;8.80;8.80;;;;;16.33;35.06;99002.19;6261846;27;96701;-61
2022/02/25 12:02:05;;;;;;;;;10.40;8.40;;;;;17.51;32.16;98992.03;6260656;27;97403;-63
2022/02/25 12:05:13;;;;;;;;;10.00;10.00;;;;;18.39;30.41;98996.50;6247368;27;96862;-63
2022/02/25 12:08:28;;;;;;;;;11.20;10.20;;;;;19.13;28.67;98997.97;6248897;27;97811;-62
2022/02/25 12:11:35;;;;;;;;;11.00;10.00;;;;;19.69;27.79;99004.19;6231083;27;99371;-64
2022/02/25 12:15:00;;;;;;;;;10.20;10.00;;;;;20.13;26.10;99009.78;6262845;27;96581;-63
2022/02/25 12:18:05;;;;;;;;;11.40;10.00;;;;;20.72;25.87;99005.06;6262175;27;96828;-64
2022/02/25 12:21:39;;;;;;;;;9.00;9.00;;;;;21.05;27.50;99008.94;6263134;27;96739;-66
2022/02/25 12:24:43;;;;;;;;;9.25;9.25;;;;;21.52;25.40;99008.25;6266625;27;97419;-65
2022/02/25 12:27:47;;;;;;;;;10.00;9.50;;;;;21.99;24.09;99007.44;6271607;27;96907;-66
2022/02/25 12:30:56;;;;;;;;;9.00;8.00;;;;;21.79;23.61;99017.84;6269182;27;99897;-66
2022/02/25 12:34:05;;;;;;;;;10.00;9.00;;;;;21.17;23.59;99019.53;6263166;27;96781;-63
2022/02/25 12:37:18;;;;;;;;;9.40;9.00;;;;;20.64;24.89;99032.25;6262270;27;97494;-63
2022/02/25 12:40:24;;;;;;;;;8.60;8.60;;;;;20.43;24.90;99020.59;6273633;27;97333;-62
2022/02/25 12:43:29;;;;;;;;;11.00;9.00;;;;;20.47;25.26;99020.84;6250149;27;96802;-64
2022/02/25 12:46:34;;;;;;;;;10.00;8.00;;;;;20.53;24.53;99026.00;6245609;27;97861;-62
2022/02/25 12:49:39;;;;;;;;;8.20;7.80;;;;;20.19;24.80;99031.34;6249676;27;96781;-64
2022/02/25 12:52:43;;;;;;;;;9.60;8.00;;;;;19.47;25.91;99026.38;6261676;27;97498;-63
2022/02/25 12:55:54;;;;;;;;;9.00;7.50;;;;;19.08;25.41;99031.59;6258209;27;96654;-64
2022/02/25 12:59:04;;;;;;;;;9.00;9.00;;;;;18.41;26.45;99031.75;6265516;27;96659;-64
2022/02/25 13:02:10;;;;;;;;;13.00;11.00;;;;;17.78;27.41;99027.41;6263428;27;97742;-63
2022/02/25 13:05:13;;;;;;;;;12.00;11.00;;;;;17.30;28.10;99024.59;6263161;27;96902;-63
2022/02/25 13:08:17;;;;;;;;;10.00;8.00;;;;;17.39;28.14;99021.41;6263037;27;96456;-62
2022/02/25 13:11:21;;;;;;;;;11.40;10.40;;;;;17.04;28.60;99008.34;6270192;27;96951;-65
2022/02/25 13:14:28;;;;;;;;;8.00;7.00;;;;;16.44;28.58;99021.13;6285716;27;96712;-63
2022/02/25 13:17:33;;;;;;;;;8.00;7.00;;;;;16.36;28.95;99018.88;6244536;27;98580;-63
2022/02/25 13:20:37;;;;;;;;;9.00;8.00;;;;;16.38;28.94;99018.59;6262272;27;97631;-62
2022/02/25 13:23:50;;;;;;;;;8.00;7.25;;;;;16.68;28.70;99018.94;6262763;27;96749;-62
2022/02/25 13:26:58;;;;;;;;;8.50;8.00;;;;;16.50;28.87;99013.00;6244346;27;96785;-63
2022/02/25 13:30:11;;;;;;;;;8.00;7.00;;;;;16.65;28.68;99015.91;6261144;27;97391;-62
2022/02/25 13:33:16;;;;;;;;;8.20;7.00;;;;;16.71;28.38;99010.22;6263782;27;97552;-63
2022/02/25 13:36:19;;;;;;;;;9.00;8.00;;;;;17.01;28.67;99006.94;6272183;27;97662;-65
2022/02/25 13:39:25;;;;;;;;;9.60;9.00;;;;;16.87;28.88;99014.75;6259231;27;96397;-69
2022/02/25 13:42:34;;;;;;;;;8.00;7.00;;;;;16.70;28.93;99005.06;6258405;27;97124;-63
2022/02/25 13:45:39;;;;;;;;;9.00;8.00;;;;;16.67;28.54;99002.84;6288414;27;97516;-64
2022/02/25 13:52:22;;;;;;;;;8.00;6.00;;;;;16.22;28.57;99008.63;6248126;27;97623;-65
2022/02/25 13:55:25;;;;;;;;;8.60;8.00;;;;;15.96;28.56;99007.50;6243702;27;98437;-63
2022/02/25 13:58:29;;;;;;;;;10.00;8.40;;;;;15.70;29.25;98998.22;6245065;27;96977;-62
2022/02/25 14:01:35;;;;;;;;;7.60;7.00;;;;;15.51;29.44;99013.16;6278025;27;97205;-64
2022/02/25 14:04:40;;;;;;;;;8.25;7.75;;;;;15.24;29.88;99009.47;6240205;27;97456;-63
2022/02/25 14:07:46;;;;;;;;;9.00;9.00;;;;;15.07;30.13;99007.59;6259598;27;96566;-64
2022/02/25 14:10:50;;;;;;;;;7.50;6.50;;;;;14.89;30.40;99005.13;6251286;27;96718;-65
2022/02/25 14:13:54;;;;;;;;;10.80;9.80;;;;;14.77;30.78;99003.56;6258890;27;96625;-65
2022/02/25 14:17:00;;;;;;;;;10.00;9.00;;;;;14.79;30.66;99001.44;6264333;27;96715;-64
2022/02/25 14:20:06;;;;;;;;;7.00;7.00;;;;;14.98;30.31;99002.81;6265964;27;97383;-64
2022/02/25 14:23:12;;;;;;;;;6.20;6.00;;;;;14.92;29.80;98998.38;6245904;27;97717;-63
2022/02/25 14:26:26;;;;;;;;;7.00;6.00;;;;;15.17;29.44;99012.38;6278943;27;98427;-64
2022/02/25 14:29:29;;;;;;;;;8.00;6.60;;;;;15.48;29.28;99008.22;6230596;27;96839;-66
2022/02/25 14:32:34;;;;;;;;;7.75;6.75;;;;;15.82;28.78;99015.22;6219374;27;98170;-65
2022/02/25 14:35:39;;;;;;;;;7.60;7.00;;;;;16.12;28.34;99016.69;6267859;27;96750;-66
2022/02/25 14:38:45;;;;;;;;;9.00;8.00;;;;;16.28;27.44;99016.56;6269478;27;97544;-64
2022/02/25 14:41:48;;;;;;;;;8.00;7.00;;;;;16.45;27.05;99017.31;6272531;27;97519;-64